createdAt,value
2022-10-22T00:04:12.179Z,9.14
2022-10-22T00:09:15.727Z,9.07
2022-10-22T00:14:27.306Z,8.96
2022-10-22T00:19:30.620Z,8.90
2022-10-22T00:24:34.903Z,8.86
2022-10-22T00:29:38.192Z,8.87
2022-10-22T00:34:42.001Z,8.87
2022-10-22T00:39:45.322Z,8.92
2022-10-22T00:45:10.928Z,8.96
2022-10-22T00:50:23.490Z,9.01
2022-10-22T00:55:28.690Z,9.05
2022-10-22T01:00:32.546Z,9.07
2022-10-22T01:05:56.126Z,9.12
2022-10-22T01:11:18.222Z,9.14
2022-10-22T01:16:40.810Z,9.14
2022-10-22T01:21:54.332Z,9.13
2022-10-22T01:27:20.702Z,9.13
2022-10-22T01:32:25.919Z,9.15
2022-10-22T01:37:31.487Z,9.14
2022-10-22T01:42:34.861Z,9.15
2022-10-22T01:47:48.657Z,9.13
2022-10-22T01:53:33.661Z,9.12
2022-10-22T01:58:55.900Z,9.11
2022-10-22T02:04:12.554Z,9.06
2022-10-22T02:09:19.230Z,8.95
2022-10-22T02:14:22.985Z,8.82
2022-10-22T02:19:26.279Z,8.67
2022-10-22T02:24:29.805Z,8.60
2022-10-22T02:29:48.058Z,8.47
2022-10-22T02:34:54.948Z,8.36
2022-10-22T02:39:58.238Z,8.26
2022-10-22T02:45:01.539Z,8.20
2022-10-22T02:50:09.571Z,8.17
2022-10-22T02:55:14.487Z,8.14
2022-10-22T03:00:21.104Z,8.12
2022-10-22T03:05:28.144Z,8.09
2022-10-22T03:10:34.991Z,8.06
2022-10-22T03:15:44.020Z,8.00
2022-10-22T03:20:49.691Z,7.95
2022-10-22T03:25:53.046Z,7.93
2022-10-22T03:30:56.351Z,7.91
2022-10-22T03:35:59.831Z,7.91
2022-10-22T03:41:03.411Z,7.91
2022-10-22T03:46:07.138Z,7.92
2022-10-22T03:51:10.859Z,7.94
2022-10-22T03:56:14.544Z,7.99
2022-10-22T04:01:17.831Z,8.05
2022-10-22T04:06:21.528Z,8.11
2022-10-22T04:11:24.782Z,8.18
2022-10-22T04:16:32.903Z,8.24
2022-10-22T04:21:39.217Z,8.29
2022-10-22T04:26:42.850Z,8.37
2022-10-22T04:31:48.111Z,8.48
2022-10-22T04:36:51.427Z,8.57
2022-10-22T04:41:54.698Z,8.62
2022-10-22T04:46:57.991Z,8.68
2022-10-22T04:52:01.234Z,8.68
2022-10-22T04:57:04.663Z,8.68
2022-10-22T05:02:18.080Z,8.71
2022-10-22T05:07:21.863Z,8.74
2022-10-22T05:12:26.327Z,8.83
2022-10-22T05:17:29.643Z,8.91
2022-10-22T05:22:34.904Z,9.01
2022-10-22T05:27:38.359Z,9.10
2022-10-22T05:32:41.814Z,9.16
2022-10-22T05:37:45.075Z,9.22
2022-10-22T05:42:48.413Z,9.27
2022-10-22T05:47:51.881Z,9.30
2022-10-22T05:52:55.277Z,9.27
2022-10-22T05:57:59.932Z,9.32
2022-10-22T06:03:03.267Z,9.39
2022-10-22T06:08:06.657Z,9.48
2022-10-22T06:13:12.349Z,9.58
2022-10-22T06:18:15.677Z,9.73
2022-10-22T06:23:19.064Z,9.92
2022-10-22T06:33:35.917Z,10.18
2022-10-22T06:38:44.323Z,10.21
2022-10-22T06:43:59.899Z,10.21
2022-10-22T06:49:38.616Z,10.24
2022-10-22T06:54:44.873Z,10.31
2022-10-22T06:59:51.060Z,10.40
2022-10-22T07:04:54.640Z,10.41
2022-10-22T07:09:59.011Z,10.42
2022-10-22T07:15:05.049Z,10.44
2022-10-22T07:20:09.517Z,10.42
2022-10-22T07:25:20.162Z,10.44
2022-10-22T07:30:29.769Z,10.51
2022-10-22T07:35:50.399Z,10.60
2022-10-22T07:40:55.983Z,10.70
2022-10-22T07:46:03.178Z,10.80
2022-10-22T07:51:07.723Z,10.90
2022-10-22T07:56:15.467Z,11.01
2022-10-22T08:01:27.197Z,11.13
2022-10-22T08:06:47.235Z,11.26
2022-10-22T08:11:51.484Z,11.39
2022-10-22T08:17:00.100Z,11.53
2022-10-22T08:22:03.926Z,11.67
2022-10-22T08:27:11.330Z,11.80
2022-10-22T08:32:22.545Z,11.92
2022-10-22T08:37:26.800Z,12.02
2022-10-22T08:43:01.411Z,12.12
2022-10-22T08:48:48.306Z,12.29
2022-10-22T08:54:26.251Z,12.50
2022-10-22T08:59:59.912Z,12.70
2022-10-22T09:06:11.826Z,12.87
2022-10-22T09:11:29.316Z,13.02
2022-10-22T09:16:54.555Z,13.20
2022-10-22T09:22:47.020Z,13.30
2022-10-22T09:27:59.863Z,13.40
2022-10-22T09:33:06.577Z,13.49
2022-10-22T09:38:10.183Z,13.59
2022-10-22T09:43:15.731Z,13.57
2022-10-22T09:48:45.748Z,13.51
2022-10-22T09:59:46.136Z,13.79
2022-10-22T10:05:07.892Z,13.78
2022-10-22T10:10:25.397Z,13.82
2022-10-22T10:15:57.041Z,13.86
2022-10-22T10:21:08.161Z,13.88
2022-10-22T10:26:42.419Z,13.91
2022-10-22T10:32:00.430Z,13.87
2022-10-22T10:37:31.199Z,13.76
2022-10-22T10:42:46.911Z,13.71
2022-10-22T10:48:14.184Z,13.67
2022-10-22T10:53:36.824Z,13.67
2022-10-22T10:59:35.898Z,13.68
2022-10-22T11:04:53.943Z,13.62
2022-10-22T11:10:31.601Z,13.66
2022-10-22T11:16:02.974Z,13.81
2022-10-22T11:21:44.268Z,14.02
2022-10-22T11:27:12.743Z,14.35
2022-10-22T11:32:33.926Z,14.57
2022-10-22T11:37:39.597Z,14.84
2022-10-22T11:42:57.985Z,15.07
2022-10-22T11:48:09.948Z,15.33
2022-10-22T11:53:16.240Z,15.22
2022-10-22T11:58:33.585Z,15.02
2022-10-22T12:03:58.238Z,14.91
2022-10-22T12:09:07.486Z,14.84
2022-10-22T12:14:34.281Z,14.86
2022-10-22T12:19:47.871Z,14.96
2022-10-22T12:25:09.007Z,15.18
2022-10-22T12:30:33.303Z,15.34
2022-10-22T12:35:45.819Z,15.10
2022-10-22T12:40:53.060Z,14.87
2022-10-22T12:45:59.290Z,14.76
2022-10-22T12:51:07.366Z,14.64
2022-10-22T12:56:28.355Z,14.53
2022-10-22T13:01:38.792Z,14.44
2022-10-22T13:06:58.103Z,14.37
2022-10-22T13:12:20.770Z,14.29
2022-10-22T13:18:28.295Z,14.19
2022-10-22T13:23:35.463Z,14.12
2022-10-22T13:28:54.434Z,14.08
2022-10-22T13:34:27.267Z,14.03
2022-10-22T13:39:43.941Z,14.04
2022-10-22T13:44:49.970Z,14.01
2022-10-22T13:55:13.722Z,13.93
2022-10-22T14:00:22.221Z,13.97
2022-10-22T14:05:26.837Z,13.96
2022-10-22T14:10:30.247Z,13.91
2022-10-22T14:15:36.711Z,13.88
2022-10-22T14:20:42.296Z,13.85
2022-10-22T14:25:46.898Z,13.80
2022-10-22T14:30:50.469Z,13.75
2022-10-22T14:35:53.919Z,13.70
2022-10-22T14:41:00.193Z,13.67
2022-10-22T14:46:04.337Z,13.65
2022-10-22T14:51:08.233Z,13.66
2022-10-22T14:56:16.552Z,13.71
2022-10-22T15:01:23.378Z,13.73
2022-10-22T15:06:28.120Z,13.74
2022-10-22T15:11:34.875Z,13.73
2022-10-22T15:16:52.627Z,13.71
2022-10-22T15:22:02.693Z,13.69
2022-10-22T15:27:15.584Z,13.65
2022-10-22T15:32:20.144Z,13.63
2022-10-22T15:37:24.876Z,13.60
2022-10-22T15:42:42.388Z,13.57
2022-10-22T15:47:48.699Z,13.56
2022-10-22T15:52:52.504Z,13.53
2022-10-22T15:57:58.039Z,13.51
2022-10-22T16:03:08.992Z,13.50
2022-10-22T16:08:12.792Z,13.49
2022-10-22T16:13:24.901Z,13.47
2022-10-22T16:18:31.399Z,13.45
2022-10-22T16:23:36.101Z,13.43
2022-10-22T16:28:39.306Z,13.39
2022-10-22T16:33:47.914Z,13.39
2022-10-22T16:38:58.943Z,13.37
2022-10-22T16:44:09.639Z,13.36
2022-10-22T16:49:12.949Z,13.36
2022-10-22T16:54:17.294Z,13.37
2022-10-22T16:59:23.954Z,13.37
2022-10-22T17:04:27.573Z,13.38
2022-10-22T17:09:33.921Z,13.37
2022-10-22T17:14:40.290Z,13.37
2022-10-22T17:19:43.633Z,13.37
2022-10-22T17:25:09.869Z,13.35
2022-10-22T17:30:19.217Z,13.34
2022-10-22T17:35:43.312Z,13.32
2022-10-22T17:41:14.825Z,13.30
2022-10-22T17:46:21.194Z,13.30
2022-10-22T17:51:26.842Z,13.30
2022-10-22T17:56:30.600Z,13.32
2022-10-22T18:01:43.591Z,13.33
2022-10-22T18:06:48.048Z,13.34
2022-10-22T18:11:55.725Z,13.35
2022-10-22T18:17:02.384Z,13.34
2022-10-22T18:22:08.121Z,13.32
2022-10-22T18:27:11.683Z,13.30
2022-10-22T18:32:14.887Z,13.27
2022-10-22T18:37:24.120Z,13.23
2022-10-22T18:42:31.154Z,13.20
2022-10-22T18:47:40.512Z,13.13
2022-10-22T18:52:48.459Z,13.05
2022-10-22T18:57:53.401Z,13.00
2022-10-22T19:03:07.352Z,12.98
2022-10-22T19:08:12.584Z,12.98
2022-10-22T19:13:33.016Z,12.93
2022-10-22T19:19:08.402Z,12.90
2022-10-22T19:24:23.083Z,12.86
2022-10-22T19:29:29.356Z,12.84
2022-10-22T19:34:41.680Z,12.80
2022-10-22T19:45:13.341Z,12.74
2022-10-22T19:50:34.615Z,12.71
2022-10-22T19:55:51.341Z,12.65
2022-10-22T20:01:05.962Z,12.61
2022-10-22T20:06:19.546Z,12.56
2022-10-22T20:11:33.350Z,12.48
2022-10-22T20:16:51.597Z,12.39
2022-10-22T20:22:05.899Z,12.30
2022-10-22T20:27:27.100Z,12.24
2022-10-22T20:33:06.611Z,12.21
2022-10-22T20:38:51.477Z,12.15
2022-10-22T20:44:01.708Z,12.13
2022-10-22T20:49:27.192Z,12.09
2022-10-22T21:00:32.310Z,12.02
2022-10-22T21:06:24.615Z,11.96
2022-10-22T21:12:16.102Z,11.87
2022-10-22T21:23:59.835Z,11.59
2022-10-22T21:29:23.957Z,11.51
2022-10-22T21:35:08.916Z,11.41
2022-10-22T21:40:31.672Z,11.30
2022-10-22T21:46:15.163Z,11.19
2022-10-22T21:51:35.020Z,11.09
2022-10-22T21:57:30.361Z,10.98
2022-10-22T22:03:06.967Z,10.89
2022-10-22T22:08:32.213Z,10.84
2022-10-22T22:14:02.616Z,10.74
2022-10-22T22:25:16.726Z,10.67
2022-10-22T22:30:24.906Z,10.65
2022-10-22T22:35:31.585Z,10.59
2022-10-22T22:40:43.956Z,10.54
2022-10-22T22:45:48.939Z,10.55
2022-10-22T22:51:02.658Z,10.46
2022-10-22T22:56:26.163Z,10.50
2022-10-22T23:01:38.398Z,10.60
2022-10-22T23:06:42.321Z,10.54
2022-10-22T23:11:48.699Z,10.45
2022-10-22T23:16:55.596Z,10.27
2022-10-22T23:22:07.927Z,10.19
2022-10-22T23:27:13.328Z,10.23
2022-10-22T23:32:16.750Z,10.27
2022-10-22T23:37:20.379Z,10.16
2022-10-22T23:42:23.621Z,10.06
2022-10-22T23:47:27.043Z,10.00
2022-10-22T23:52:30.438Z,9.98
2022-10-22T23:57:33.714Z,9.99
